createdAt,value
2018-09-03T00:01:40.568Z,15.40
2018-09-03T00:04:08.126Z,15.40
2018-09-03T00:06:35.640Z,15.40
2018-09-03T00:09:04.146Z,15.50
2018-09-03T00:11:31.666Z,15.40
2018-09-03T00:13:59.202Z,15.40
2018-09-03T00:16:26.751Z,15.40
2018-09-03T00:18:54.343Z,15.40
2018-09-03T00:21:21.896Z,15.30
2018-09-03T00:23:49.409Z,15.30
2018-09-03T00:26:16.933Z,15.30
2018-09-03T00:28:44.453Z,15.30
2018-09-03T00:31:17.702Z,15.30
2018-09-03T00:34:53.588Z,15.30
2018-09-03T00:37:26.763Z,15.20
2018-09-03T00:39:59.922Z,15.20
2018-09-03T00:42:33.271Z,15.20
2018-09-03T00:45:06.480Z,15.20
2018-09-03T00:47:34.021Z,15.20
2018-09-03T00:50:01.606Z,15.20
2018-09-03T00:52:29.166Z,15.20
2018-09-03T00:54:56.790Z,15.20
2018-09-03T00:57:24.333Z,15.20
2018-09-03T00:59:51.867Z,15.20
2018-09-03T01:02:19.393Z,15.20
2018-09-03T01:04:46.927Z,15.20
2018-09-03T01:07:14.497Z,15.20
2018-09-03T01:09:41.995Z,15.10
2018-09-03T01:12:09.610Z,15.20
2018-09-03T01:14:37.142Z,15.20
2018-09-03T01:17:04.737Z,15.20
2018-09-03T01:19:32.279Z,15.20
2018-09-03T01:21:59.853Z,15.20
2018-09-03T01:24:27.369Z,15.20
2018-09-03T01:26:54.898Z,15.20
2018-09-03T01:29:22.435Z,15.20
2018-09-03T01:31:54.100Z,15.20
2018-09-03T01:34:22.465Z,15.20
2018-09-03T01:36:50.069Z,15.20
2018-09-03T01:39:17.604Z,15.20
2018-09-03T01:41:45.162Z,15.20
2018-09-03T01:44:12.700Z,15.30
2018-09-03T01:46:40.269Z,15.30
2018-09-03T01:49:07.828Z,15.30
2018-09-03T01:51:35.346Z,15.30
2018-09-03T01:54:02.907Z,15.30
2018-09-03T01:56:30.426Z,15.30
2018-09-03T01:58:57.966Z,15.30
2018-09-03T02:01:25.502Z,15.30
2018-09-03T02:03:53.026Z,15.20
2018-09-03T02:06:20.594Z,15.20
2018-09-03T02:08:48.103Z,15.20
2018-09-03T02:11:15.759Z,15.20
2018-09-03T02:13:43.366Z,15.20
2018-09-03T02:16:10.960Z,15.20
2018-09-03T02:18:39.004Z,15.20
2018-09-03T02:21:06.844Z,15.20
2018-09-03T02:23:34.406Z,15.30
2018-09-03T02:26:02.004Z,15.30
2018-09-03T02:28:29.598Z,15.20
2018-09-03T02:30:57.174Z,15.20
2018-09-03T02:33:24.790Z,15.20
2018-09-03T02:35:52.349Z,15.10
2018-09-03T02:38:19.921Z,15.10
2018-09-03T02:40:47.464Z,15.20
2018-09-03T02:43:15.038Z,15.20
2018-09-03T02:45:42.682Z,15.10
2018-09-03T02:48:10.221Z,15.10
2018-09-03T02:50:37.808Z,15.10
2018-09-03T02:53:05.454Z,15.10
2018-09-03T02:55:33.067Z,15.20
2018-09-03T02:58:00.617Z,15.10
2018-09-03T03:00:28.160Z,15.10
2018-09-03T03:02:57.137Z,15.10
2018-09-03T03:05:24.861Z,15.10
2018-09-03T03:07:52.433Z,15.10
2018-09-03T03:10:19.970Z,15.10
2018-09-03T03:12:47.505Z,15.10
2018-09-03T03:15:15.139Z,15.10
2018-09-03T03:17:42.693Z,15.10
2018-09-03T03:20:10.264Z,15.00
2018-09-03T03:22:37.804Z,15.00
2018-09-03T03:25:05.573Z,15.00
2018-09-03T03:27:33.153Z,15.00
2018-09-03T03:30:00.718Z,15.00
2018-09-03T03:32:28.271Z,14.90
2018-09-03T03:34:55.779Z,14.90
2018-09-03T03:37:23.301Z,14.90
2018-09-03T03:39:50.824Z,14.90
2018-09-03T03:42:18.452Z,14.90
2018-09-03T03:44:45.989Z,14.90
2018-09-03T03:47:13.573Z,14.90
2018-09-03T03:49:41.162Z,14.90
2018-09-03T03:52:08.681Z,14.90
2018-09-03T03:54:36.210Z,14.90
2018-09-03T03:57:03.728Z,15.00
2018-09-03T03:59:31.296Z,15.00
2018-09-03T04:01:58.873Z,15.00
2018-09-03T04:04:26.436Z,15.00
2018-09-03T04:06:53.996Z,15.00
2018-09-03T04:09:21.538Z,14.90
2018-09-03T04:11:49.046Z,14.90
2018-09-03T04:14:16.603Z,14.90
2018-09-03T04:16:44.137Z,14.90
2018-09-03T04:19:11.700Z,14.80
2018-09-03T04:21:39.266Z,14.80
2018-09-03T04:24:06.864Z,14.80
2018-09-03T04:26:34.422Z,14.80
2018-09-03T04:29:01.998Z,14.80
2018-09-03T04:31:29.542Z,14.80
2018-09-03T04:33:57.050Z,14.70
2018-09-03T04:36:24.648Z,14.70
2018-09-03T04:38:52.239Z,14.70
2018-09-03T04:41:19.822Z,14.70
2018-09-03T04:43:47.333Z,14.70
2018-09-03T04:46:14.914Z,14.70
2018-09-03T04:48:42.456Z,14.70
2018-09-03T04:51:10.007Z,14.70
2018-09-03T04:53:37.534Z,14.70
2018-09-03T04:56:05.150Z,14.70
2018-09-03T04:58:32.705Z,14.60
2018-09-03T05:01:00.281Z,14.60
2018-09-03T05:03:27.827Z,14.60
2018-09-03T05:05:55.424Z,14.60
2018-09-03T05:08:22.952Z,14.60
2018-09-03T05:10:50.512Z,14.60
2018-09-03T05:13:18.027Z,14.70
2018-09-03T05:15:45.589Z,14.70
2018-09-03T05:18:13.178Z,14.70
2018-09-03T05:20:40.906Z,14.80
2018-09-03T05:23:08.510Z,14.90
2018-09-03T05:25:36.024Z,15.10
2018-09-03T05:28:03.626Z,15.30
2018-09-03T05:30:31.151Z,15.50
2018-09-03T05:32:58.873Z,15.70
2018-09-03T05:35:26.399Z,15.80
2018-09-03T05:37:53.928Z,15.80
2018-09-03T05:40:21.465Z,15.90
2018-09-03T05:42:49.019Z,16.00
2018-09-03T05:45:16.581Z,16.00
2018-09-03T05:47:44.138Z,16.10
2018-09-03T05:50:11.772Z,16.20
2018-09-03T05:52:39.277Z,16.30
2018-09-03T05:55:06.949Z,16.40
2018-09-03T05:57:34.510Z,16.50
2018-09-03T06:00:02.105Z,16.60
2018-09-03T06:02:29.639Z,16.70
2018-09-03T06:04:57.185Z,16.80
2018-09-03T06:07:24.755Z,16.90
2018-09-03T06:09:52.495Z,16.90
2018-09-03T06:12:20.130Z,16.90
2018-09-03T06:14:47.651Z,17.00
2018-09-03T06:17:15.222Z,17.00
2018-09-03T06:19:42.731Z,17.00
2018-09-03T06:22:10.273Z,17.10
2018-09-03T06:24:37.827Z,17.10
2018-09-03T06:27:05.367Z,17.10
2018-09-03T06:29:32.923Z,17.20
2018-09-03T06:32:00.478Z,17.30
2018-09-03T06:34:28.034Z,17.30
2018-09-03T06:36:55.655Z,17.30
2018-09-03T06:39:23.227Z,17.30
2018-09-03T06:41:50.757Z,17.30
2018-09-03T06:44:18.260Z,17.50
2018-09-03T06:46:45.838Z,17.60
2018-09-03T06:49:13.398Z,17.60
2018-09-03T06:51:40.990Z,17.60
2018-09-03T06:54:08.618Z,17.40
2018-09-03T06:56:36.145Z,17.30
2018-09-03T06:59:03.697Z,17.20
2018-09-03T07:01:31.233Z,17.10
2018-09-03T07:03:58.732Z,17.00
2018-09-03T07:06:26.284Z,16.90
2018-09-03T07:08:53.809Z,16.90
2018-09-03T07:11:21.348Z,16.80
2018-09-03T07:13:48.906Z,16.80
2018-09-03T07:16:16.509Z,16.80
2018-09-03T07:18:44.147Z,16.70
2018-09-03T07:21:11.692Z,16.60
2018-09-03T07:23:39.389Z,16.50
2018-09-03T07:26:06.969Z,16.50
2018-09-03T07:28:34.545Z,16.60
2018-09-03T07:31:02.099Z,16.70
2018-09-03T07:33:29.678Z,16.80
2018-09-03T07:35:57.198Z,17.00
2018-09-03T07:38:25.276Z,17.10
2018-09-03T07:40:52.925Z,17.20
2018-09-03T07:43:20.547Z,17.30
2018-09-03T07:45:48.172Z,17.40
2018-09-03T07:48:15.754Z,17.60
2018-09-03T07:50:43.284Z,17.60
2018-09-03T07:53:10.869Z,17.60
2018-09-03T07:55:38.383Z,17.60
2018-09-03T07:58:06.301Z,17.60
2018-09-03T08:00:33.885Z,17.80
2018-09-03T08:03:01.409Z,17.90
2018-09-03T08:05:28.967Z,18.00
2018-09-03T08:07:56.521Z,18.10
2018-09-03T08:10:24.112Z,18.20
2018-09-03T08:12:51.720Z,18.40
2018-09-03T08:15:19.253Z,18.50
2018-09-03T08:17:46.996Z,18.40
2018-09-03T08:20:14.579Z,18.40
2018-09-03T08:22:42.181Z,18.40
2018-09-03T08:25:09.773Z,18.50
2018-09-03T08:27:37.345Z,18.60
2018-09-03T08:30:05.795Z,18.70
2018-09-03T08:32:33.381Z,18.70
2018-09-03T08:35:00.984Z,18.80
2018-09-03T08:37:28.552Z,19.00
2018-09-03T08:39:56.188Z,19.10
2018-09-03T08:42:23.887Z,19.20
2018-09-03T08:44:51.511Z,19.30
2018-09-03T08:47:19.062Z,19.30
2018-09-03T08:49:46.675Z,19.30
2018-09-03T08:52:14.239Z,19.40
2018-09-03T08:54:41.907Z,19.60
2018-09-03T08:57:09.470Z,19.70
2018-09-03T08:59:37.019Z,19.70
2018-09-03T09:02:04.554Z,19.70
2018-09-03T09:04:32.121Z,19.80
2018-09-03T09:06:59.785Z,19.90
2018-09-03T09:09:27.349Z,19.90
2018-09-03T09:11:54.901Z,19.90
2018-09-03T09:14:22.477Z,19.90
2018-09-03T09:16:50.141Z,20.00
2018-09-03T09:19:17.687Z,20.00
2018-09-03T09:21:45.281Z,19.90
2018-09-03T09:24:12.826Z,19.90
2018-09-03T09:26:40.349Z,19.80
2018-09-03T09:29:07.940Z,19.80
2018-09-03T09:31:35.493Z,19.90
2018-09-03T09:34:03.103Z,19.90
2018-09-03T09:36:30.689Z,19.90
2018-09-03T09:38:58.259Z,19.90
2018-09-03T09:41:25.912Z,19.90
2018-09-03T09:43:53.487Z,19.90
2018-09-03T09:46:23.554Z,19.90
2018-09-03T09:48:51.092Z,19.80
2018-09-03T09:51:18.759Z,19.80
2018-09-03T09:53:46.375Z,19.90
2018-09-03T09:56:13.972Z,20.00
2018-09-03T09:58:41.575Z,20.00
2018-09-03T10:01:14.738Z,20.00
2018-09-03T10:03:42.276Z,20.00
2018-09-03T10:06:09.811Z,20.00
2018-09-03T10:08:37.385Z,20.00
2018-09-03T10:11:05.040Z,20.00
2018-09-03T10:13:32.653Z,19.90
2018-09-03T10:16:00.196Z,19.90
2018-09-03T10:18:27.724Z,19.90
2018-09-03T10:20:55.276Z,19.90
2018-09-03T10:23:22.879Z,20.00
2018-09-03T10:25:50.435Z,20.00
2018-09-03T10:28:17.977Z,20.10
2018-09-03T10:30:45.561Z,20.10
2018-09-03T10:33:13.120Z,19.90
2018-09-03T10:35:40.659Z,19.90
2018-09-03T10:38:08.245Z,19.90
2018-09-03T10:40:35.786Z,19.90
2018-09-03T10:43:03.349Z,19.80
2018-09-03T10:45:30.910Z,19.70
2018-09-03T10:47:58.458Z,19.70
2018-09-03T10:50:26.033Z,19.60
2018-09-03T10:52:53.571Z,19.60
2018-09-03T10:55:21.138Z,19.70
2018-09-03T10:57:48.643Z,19.80
2018-09-03T11:00:16.205Z,20.00
2018-09-03T11:02:43.793Z,20.10
2018-09-03T11:05:11.416Z,20.20
2018-09-03T11:07:39.007Z,20.30
2018-09-03T11:10:06.595Z,20.30
2018-09-03T11:12:34.583Z,20.40
2018-09-03T11:15:02.131Z,20.30
2018-09-03T11:17:29.661Z,20.30
2018-09-03T11:19:59.603Z,20.30
2018-09-03T11:22:27.291Z,20.30
2018-09-03T11:24:55.042Z,20.30
2018-09-03T11:27:22.619Z,20.40
2018-09-03T11:29:50.181Z,20.40
2018-09-03T11:32:17.744Z,20.50
2018-09-03T11:34:45.681Z,20.50
2018-09-03T11:37:13.247Z,20.50
2018-09-03T11:39:40.807Z,20.40
2018-09-03T11:42:08.353Z,20.30
2018-09-03T11:44:35.918Z,20.30
2018-09-03T11:47:03.617Z,20.20
2018-09-03T11:49:31.117Z,20.20
2018-09-03T11:51:58.676Z,20.20
2018-09-03T11:54:26.247Z,20.20
2018-09-03T11:56:53.802Z,20.20
2018-09-03T11:59:21.391Z,20.30
2018-09-03T12:01:49.003Z,20.40
2018-09-03T12:04:16.622Z,20.50
2018-09-03T12:06:44.300Z,20.60
2018-09-03T12:09:11.769Z,20.60
2018-09-03T12:11:39.356Z,20.80
2018-09-03T12:14:13.440Z,20.80
2018-09-03T12:16:41.023Z,21.00
2018-09-03T12:19:08.554Z,21.00
2018-09-03T12:21:36.072Z,20.80
2018-09-03T12:24:03.672Z,20.60
2018-09-03T12:26:31.228Z,20.50
2018-09-03T12:28:58.798Z,20.40
2018-09-03T12:31:26.432Z,20.30
2018-09-03T12:33:53.908Z,20.30
2018-09-03T12:36:21.490Z,20.30
2018-09-03T12:38:49.014Z,20.20
2018-09-03T12:41:16.618Z,20.20
2018-09-03T12:43:44.244Z,20.10
2018-09-03T12:46:11.844Z,20.10
2018-09-03T12:48:39.601Z,20.10
2018-09-03T12:51:07.219Z,20.00
2018-09-03T12:53:34.764Z,19.90
2018-09-03T12:56:02.893Z,19.90
2018-09-03T12:58:30.522Z,19.90
2018-09-03T13:00:58.092Z,20.00
2018-09-03T13:03:25.628Z,20.10
2018-09-03T13:05:53.193Z,20.30
2018-09-03T13:08:20.744Z,20.50
2018-09-03T13:10:48.301Z,20.80
2018-09-03T13:13:15.865Z,21.10
2018-09-03T13:15:43.411Z,21.20
2018-09-03T13:18:11.033Z,21.40
2018-09-03T13:20:38.609Z,21.60
2018-09-03T13:23:06.133Z,21.90
2018-09-03T13:25:33.647Z,22.00
2018-09-03T13:28:01.259Z,22.10
2018-09-03T13:30:28.803Z,22.10
2018-09-03T13:32:56.423Z,22.10
2018-09-03T13:35:24.279Z,22.20
2018-09-03T13:37:51.854Z,22.30
2018-09-03T13:40:19.416Z,22.40
2018-09-03T13:42:46.956Z,22.30
2018-09-03T13:45:14.565Z,22.30
2018-09-03T13:47:42.131Z,22.20
2018-09-03T13:50:09.800Z,22.20
2018-09-03T13:52:37.362Z,22.00
2018-09-03T13:55:05.280Z,22.00
2018-09-03T13:57:32.788Z,22.00
2018-09-03T14:00:00.356Z,22.00
2018-09-03T14:02:27.923Z,22.00
2018-09-03T14:04:55.593Z,22.10
2018-09-03T14:07:23.188Z,22.20
2018-09-03T14:09:50.817Z,22.30
2018-09-03T14:12:18.425Z,22.30
2018-09-03T14:14:45.980Z,22.30
2018-09-03T14:17:13.610Z,22.20
2018-09-03T14:19:41.188Z,22.20
2018-09-03T14:22:08.774Z,22.10
2018-09-03T14:24:36.321Z,21.90
2018-09-03T14:27:03.879Z,21.80
2018-09-03T14:29:31.406Z,21.60
2018-09-03T14:31:58.960Z,21.50
2018-09-03T14:34:26.490Z,21.40
2018-09-03T14:36:54.159Z,21.40
2018-09-03T14:39:21.654Z,21.40
2018-09-03T14:41:49.347Z,21.40
2018-09-03T14:44:16.947Z,21.30
2018-09-03T14:46:44.554Z,21.20
2018-09-03T14:49:12.111Z,21.10
2018-09-03T14:51:39.662Z,21.00
2018-09-03T14:54:07.182Z,20.90
2018-09-03T14:56:34.808Z,20.80
2018-09-03T14:59:02.534Z,20.80
2018-09-03T15:01:30.234Z,20.80
2018-09-03T15:03:57.854Z,20.80
2018-09-03T15:06:25.428Z,20.80
2018-09-03T15:08:52.962Z,20.80
2018-09-03T15:11:20.577Z,20.80
2018-09-03T15:13:52.841Z,20.90
2018-09-03T15:16:20.409Z,20.90
2018-09-03T15:18:48.011Z,20.90
2018-09-03T15:21:15.573Z,20.90
2018-09-03T15:23:43.125Z,20.90
2018-09-03T15:26:10.832Z,20.90
2018-09-03T15:28:38.347Z,21.00
2018-09-03T15:31:05.931Z,21.10
2018-09-03T15:33:33.553Z,21.10
2018-09-03T15:36:01.231Z,21.10
2018-09-03T15:38:28.739Z,21.00
2018-09-03T15:40:56.311Z,20.90
2018-09-03T15:43:23.961Z,21.00
2018-09-03T15:45:51.493Z,21.00
2018-09-03T15:48:19.183Z,21.00
2018-09-03T15:50:46.891Z,21.00
2018-09-03T15:53:14.455Z,20.90
2018-09-03T15:55:42.023Z,20.80
2018-09-03T15:58:09.633Z,20.80
2018-09-03T16:00:37.238Z,20.80
2018-09-03T16:03:04.884Z,20.90
2018-09-03T16:05:32.528Z,20.90
2018-09-03T16:08:00.166Z,20.90
2018-09-03T16:10:27.753Z,20.80
2018-09-03T16:12:55.295Z,20.70
2018-09-03T16:15:22.886Z,20.60
2018-09-03T16:17:50.539Z,20.50
2018-09-03T16:20:18.125Z,20.40
2018-09-03T16:22:45.727Z,20.40
2018-09-03T16:25:13.353Z,20.30
2018-09-03T16:27:40.937Z,20.20
2018-09-03T16:30:08.523Z,20.20
2018-09-03T16:32:36.085Z,20.10
2018-09-03T16:35:03.692Z,20.10
2018-09-03T16:37:31.243Z,20.00
2018-09-03T16:39:58.782Z,20.00
2018-09-03T16:42:26.316Z,19.90
2018-09-03T16:44:53.871Z,19.90
2018-09-03T16:47:21.489Z,19.80
2018-09-03T16:49:49.038Z,19.70
2018-09-03T16:52:16.591Z,19.60
2018-09-03T16:54:44.171Z,19.50
2018-09-03T16:57:11.799Z,19.50
2018-09-03T16:59:39.519Z,19.40
2018-09-03T17:02:07.166Z,19.30
2018-09-03T17:04:34.812Z,19.20
2018-09-03T17:07:02.500Z,19.20
2018-09-03T17:09:30.093Z,19.10
2018-09-03T17:11:57.694Z,19.10
2018-09-03T17:14:25.253Z,19.10
2018-09-03T17:16:52.811Z,19.00
2018-09-03T17:19:20.389Z,19.00
2018-09-03T17:21:48.018Z,18.90
2018-09-03T17:24:15.607Z,18.80
2018-09-03T17:26:43.910Z,18.80
2018-09-03T17:29:11.435Z,18.70
2018-09-03T17:31:39.272Z,18.60
2018-09-03T17:34:06.958Z,18.50
2018-09-03T17:36:34.601Z,18.50
2018-09-03T17:39:02.272Z,18.50
2018-09-03T17:41:29.832Z,18.40
2018-09-03T17:43:57.435Z,18.40
2018-09-03T17:46:27.133Z,18.40
2018-09-03T17:48:54.817Z,18.40
2018-09-03T17:51:22.459Z,18.30
2018-09-03T17:53:50.083Z,18.30
2018-09-03T17:56:17.677Z,18.30
2018-09-03T17:58:45.361Z,18.20
2018-09-03T18:01:12.955Z,18.20
2018-09-03T18:03:40.611Z,18.20
2018-09-03T18:06:08.337Z,18.20
2018-09-03T18:08:35.999Z,18.10
2018-09-03T18:11:03.747Z,18.10
2018-09-03T18:13:31.409Z,18.00
2018-09-03T18:15:59.095Z,18.00
2018-09-03T18:18:27.121Z,17.90
2018-09-03T18:20:54.818Z,17.90
2018-09-03T18:23:22.543Z,17.90
2018-09-03T18:25:50.192Z,17.80
2018-09-03T18:28:17.925Z,17.70
2018-09-03T18:30:45.713Z,17.70
2018-09-03T18:33:13.345Z,17.60
2018-09-03T18:35:41.947Z,17.60
2018-09-03T18:38:09.904Z,17.60
2018-09-03T18:40:37.705Z,17.50
2018-09-03T18:43:05.559Z,17.50
2018-09-03T18:45:33.246Z,17.50
2018-09-03T18:48:00.918Z,17.50
2018-09-03T18:50:28.552Z,17.50
2018-09-03T18:52:56.610Z,17.50
2018-09-03T18:55:24.318Z,17.50
2018-09-03T18:57:52.252Z,17.50
2018-09-03T19:00:20.012Z,17.50
2018-09-03T19:02:47.686Z,17.50
2018-09-03T19:05:16.557Z,17.50
2018-09-03T19:07:44.246Z,17.50
2018-09-03T19:10:11.966Z,17.50
2018-09-03T19:12:39.670Z,17.40
2018-09-03T19:15:07.753Z,17.40
2018-09-03T19:17:35.453Z,17.40
2018-09-03T19:20:03.242Z,17.40
2018-09-03T19:22:31.112Z,17.40
2018-09-03T19:24:59.772Z,17.40
2018-09-03T19:27:27.914Z,17.30
2018-09-03T19:29:55.940Z,17.40
2018-09-03T19:32:23.681Z,17.30
2018-09-03T19:34:51.461Z,17.30
2018-09-03T19:37:19.193Z,17.30
2018-09-03T19:39:46.887Z,17.30
2018-09-03T19:42:14.683Z,17.30
2018-09-03T19:44:42.413Z,17.30
2018-09-03T19:47:10.366Z,17.20
2018-09-03T19:49:38.027Z,17.20
2018-09-03T19:52:06.456Z,17.20
2018-09-03T19:54:35.097Z,17.20
2018-09-03T19:57:03.133Z,17.10
2018-09-03T19:59:30.925Z,17.10
2018-09-03T20:01:58.708Z,17.10
2018-09-03T20:04:26.373Z,17.00
2018-09-03T20:06:54.735Z,17.00
2018-09-03T20:09:22.488Z,17.00
2018-09-03T20:11:50.280Z,16.90
2018-09-03T20:14:18.079Z,16.90
2018-09-03T20:16:45.762Z,16.90
2018-09-03T20:19:13.410Z,16.80
2018-09-03T20:21:41.116Z,16.80
2018-09-03T20:24:08.845Z,16.80
2018-09-03T20:26:36.513Z,16.80
2018-09-03T20:29:04.242Z,16.80
2018-09-03T20:31:32.029Z,16.80
2018-09-03T20:33:59.703Z,16.70
2018-09-03T20:36:27.395Z,16.80
2018-09-03T20:38:55.078Z,16.80
2018-09-03T20:41:23.096Z,16.80
2018-09-03T20:43:51.029Z,16.70
2018-09-03T20:46:19.119Z,16.70
2018-09-03T20:48:46.862Z,16.60
2018-09-03T20:51:14.532Z,16.60
2018-09-03T20:53:42.211Z,16.60
2018-09-03T20:56:09.904Z,16.60
2018-09-03T20:58:37.610Z,16.50
2018-09-03T21:01:05.477Z,16.50
2018-09-03T21:03:33.283Z,16.50
2018-09-03T21:06:00.985Z,16.50
2018-09-03T21:08:28.785Z,16.50
2018-09-03T21:10:56.497Z,16.50
2018-09-03T21:13:24.170Z,16.40
2018-09-03T21:15:51.833Z,16.40
2018-09-03T21:18:19.466Z,16.50
2018-09-03T21:20:47.075Z,16.40
2018-09-03T21:23:14.671Z,16.40
2018-09-03T21:25:42.296Z,16.40
2018-09-03T21:28:09.851Z,16.40
2018-09-03T21:30:37.529Z,16.40
2018-09-03T21:33:05.122Z,16.40
2018-09-03T21:35:32.799Z,16.40
2018-09-03T21:38:00.389Z,16.40
2018-09-03T21:40:27.939Z,16.40
2018-09-03T21:42:55.452Z,16.30
2018-09-03T21:45:23.034Z,16.30
2018-09-03T21:47:50.653Z,16.30
2018-09-03T21:50:18.270Z,16.30
2018-09-03T21:52:45.808Z,16.30
2018-09-03T21:55:13.443Z,16.30
2018-09-03T21:57:41.013Z,16.30
2018-09-03T22:00:08.872Z,16.30
2018-09-03T22:02:36.468Z,16.30
2018-09-03T22:05:04.578Z,16.30
2018-09-03T22:07:32.129Z,16.30
2018-09-03T22:10:00.541Z,16.30
2018-09-03T22:12:28.128Z,16.30
2018-09-03T22:14:55.658Z,16.30
2018-09-03T22:17:23.237Z,16.30
2018-09-03T22:19:50.845Z,16.40
2018-09-03T22:22:18.423Z,16.30
2018-09-03T22:24:45.953Z,16.30
2018-09-03T22:27:13.513Z,16.40
2018-09-03T22:29:41.038Z,16.30
2018-09-03T22:32:08.611Z,16.30
2018-09-03T22:34:36.253Z,16.30
2018-09-03T22:37:03.916Z,16.30
2018-09-03T22:39:31.482Z,16.30
2018-09-03T22:41:59.039Z,16.30
2018-09-03T22:44:26.580Z,16.30
2018-09-03T22:46:54.195Z,16.20
2018-09-03T22:49:21.749Z,16.20
2018-09-03T22:51:49.279Z,16.20
2018-09-03T22:54:16.801Z,16.30
2018-09-03T22:56:44.431Z,16.30
2018-09-03T22:59:11.983Z,16.30
2018-09-03T23:01:39.511Z,16.30
2018-09-03T23:04:07.063Z,16.30
2018-09-03T23:06:34.639Z,16.30
2018-09-03T23:09:02.393Z,16.20
2018-09-03T23:11:29.953Z,16.20
2018-09-03T23:13:57.533Z,16.20
2018-09-03T23:16:25.111Z,16.20
2018-09-03T23:18:52.657Z,16.30
2018-09-03T23:21:20.336Z,16.30
2018-09-03T23:23:47.909Z,16.30
2018-09-03T23:26:15.429Z,16.30
2018-09-03T23:28:43.054Z,16.20
2018-09-03T23:31:10.619Z,16.20
2018-09-03T23:33:38.137Z,16.20
2018-09-03T23:36:05.665Z,16.20
2018-09-03T23:38:33.285Z,16.20
2018-09-03T23:41:00.851Z,16.10
2018-09-03T23:43:28.420Z,16.10
2018-09-03T23:45:55.956Z,16.10
2018-09-03T23:48:23.515Z,16.10
2018-09-03T23:50:51.129Z,16.20
2018-09-03T23:53:18.781Z,16.20
2018-09-03T23:55:46.418Z,16.20
2018-09-03T23:58:14.010Z,16.20
